<?xml version="1.0" encoding="UTF-8" ?>
<gpx version="1.1" xmlns:xsi="http://www.w3.org/2001/XMLSchema-instance" 
    xmlns="http://www.topografix.com/GPX/1/1" 
    xsi:schemaLocation="http://www.topografix.com/GPX/1/1 http://www.topografix.com/GPX/1/1/gpx.xsd" 
    creator="Openrunner - https://www.openrunner.com" >
				<wpt lat="45.683077" lon="4.477314">
				 	<ele>0</ele>
				 	<name><![CDATA[Parking]]></name>
				 	<desc><![CDATA[]]></desc>
					<sym>20</sym>
				</wpt>
			
				<wpt lat="45.683007" lon="4.476950">
				 	<ele>0</ele>
				 	<name><![CDATA[Toilettes]]></name>
				 	<desc><![CDATA[]]></desc>
					<sym>21</sym>
				</wpt>
				<trk>
						<name>Sentier de l&#039;Aqueduc de la Brévenne - Aveize-20970957</name>
						<trkseg>
					<trkpt lat="45.682730" lon="4.476920">
						<ele>785</ele>
						<time>2025-03-26T08:43:39Z</time>
					</trkpt>
					<trkpt lat="45.682660" lon="4.476940">
						<ele>786</ele>
						<time>2025-03-26T08:43:49Z</time>
					</trkpt>
					<trkpt lat="45.682660" lon="4.477410">
						<ele>786</ele>
						<time>2025-03-26T08:44:32Z</time>
					</trkpt>
					<trkpt lat="45.682540" lon="4.478190">
						<ele>786</ele>
						<time>2025-03-26T08:45:47Z</time>
					</trkpt>
					<trkpt lat="45.682550" lon="4.478470">
						<ele>786</ele>
						<time>2025-03-26T08:46:13Z</time>
					</trkpt>
					<trkpt lat="45.682600" lon="4.478500">
						<ele>786</ele>
						<time>2025-03-26T08:46:20Z</time>
					</trkpt>
					<trkpt lat="45.682880" lon="4.478700">
						<ele>784</ele>
						<time>2025-03-26T08:47:02Z</time>
					</trkpt>
					<trkpt lat="45.682980" lon="4.478780">
						<ele>783</ele>
						<time>2025-03-26T08:47:17Z</time>
					</trkpt>
					<trkpt lat="45.683030" lon="4.478860">
						<ele>783</ele>
						<time>2025-03-26T08:47:27Z</time>
					</trkpt>
					<trkpt lat="45.683060" lon="4.478970">
						<ele>782</ele>
						<time>2025-03-26T08:47:38Z</time>
					</trkpt>
					<trkpt lat="45.683110" lon="4.480250">
						<ele>772</ele>
						<time>2025-03-26T08:49:38Z</time>
					</trkpt>
					<trkpt lat="45.683070" lon="4.480720">
						<ele>770</ele>
						<time>2025-03-26T08:50:22Z</time>
					</trkpt>
					<trkpt lat="45.683300" lon="4.481460">
						<ele>760</ele>
						<time>2025-03-26T08:51:37Z</time>
					</trkpt>
					<trkpt lat="45.683760" lon="4.482290">
						<ele>755</ele>
						<time>2025-03-26T08:53:16Z</time>
					</trkpt>
					<trkpt lat="45.684180" lon="4.483050">
						<ele>752</ele>
						<time>2025-03-26T08:54:47Z</time>
					</trkpt>
					<trkpt lat="45.684860" lon="4.484140">
						<ele>748</ele>
						<time>2025-03-26T08:57:03Z</time>
					</trkpt>
					<trkpt lat="45.684990" lon="4.484380">
						<ele>746</ele>
						<time>2025-03-26T08:57:31Z</time>
					</trkpt>
					<trkpt lat="45.685280" lon="4.485210">
						<ele>737</ele>
						<time>2025-03-26T08:58:58Z</time>
					</trkpt>
					<trkpt lat="45.685340" lon="4.485450">
						<ele>734</ele>
						<time>2025-03-26T08:59:21Z</time>
					</trkpt>
					<trkpt lat="45.685410" lon="4.486230">
						<ele>728</ele>
						<time>2025-03-26T09:00:35Z</time>
					</trkpt>
					<trkpt lat="45.685470" lon="4.486580">
						<ele>725</ele>
						<time>2025-03-26T09:01:08Z</time>
					</trkpt>
					<trkpt lat="45.685580" lon="4.487030">
						<ele>721</ele>
						<time>2025-03-26T09:01:53Z</time>
					</trkpt>
					<trkpt lat="45.685640" lon="4.487270">
						<ele>720</ele>
						<time>2025-03-26T09:02:16Z</time>
					</trkpt>
					<trkpt lat="45.685690" lon="4.487330">
						<ele>718</ele>
						<time>2025-03-26T09:02:25Z</time>
					</trkpt>
					<trkpt lat="45.685690" lon="4.487300">
						<ele>718</ele>
						<time>2025-03-26T09:02:28Z</time>
					</trkpt>
					<trkpt lat="45.685690" lon="4.487330">
						<ele>718</ele>
						<time>2025-03-26T09:02:31Z</time>
					</trkpt>
					<trkpt lat="45.685710" lon="4.487420">
						<ele>718</ele>
						<time>2025-03-26T09:02:40Z</time>
					</trkpt>
					<trkpt lat="45.685780" lon="4.487540">
						<ele>716</ele>
						<time>2025-03-26T09:02:54Z</time>
					</trkpt>
					<trkpt lat="45.686050" lon="4.487900">
						<ele>715</ele>
						<time>2025-03-26T09:03:43Z</time>
					</trkpt>
					<trkpt lat="45.686160" lon="4.487990">
						<ele>716</ele>
						<time>2025-03-26T09:04:00Z</time>
					</trkpt>
					<trkpt lat="45.686340" lon="4.488060">
						<ele>715</ele>
						<time>2025-03-26T09:04:25Z</time>
					</trkpt>
					<trkpt lat="45.686410" lon="4.488120">
						<ele>715</ele>
						<time>2025-03-26T09:04:36Z</time>
					</trkpt>
					<trkpt lat="45.686530" lon="4.488250">
						<ele>717</ele>
						<time>2025-03-26T09:04:56Z</time>
					</trkpt>
					<trkpt lat="45.686580" lon="4.488260">
						<ele>716</ele>
						<time>2025-03-26T09:05:03Z</time>
					</trkpt>
					<trkpt lat="45.686740" lon="4.488270">
						<ele>715</ele>
						<time>2025-03-26T09:05:24Z</time>
					</trkpt>
					<trkpt lat="45.686930" lon="4.488270">
						<ele>713</ele>
						<time>2025-03-26T09:05:50Z</time>
					</trkpt>
					<trkpt lat="45.687170" lon="4.488170">
						<ele>709</ele>
						<time>2025-03-26T09:06:23Z</time>
					</trkpt>
					<trkpt lat="45.687340" lon="4.488140">
						<ele>707</ele>
						<time>2025-03-26T09:06:46Z</time>
					</trkpt>
					<trkpt lat="45.687490" lon="4.488190">
						<ele>707</ele>
						<time>2025-03-26T09:07:06Z</time>
					</trkpt>
					<trkpt lat="45.687560" lon="4.488240">
						<ele>706</ele>
						<time>2025-03-26T09:07:17Z</time>
					</trkpt>
					<trkpt lat="45.687630" lon="4.488350">
						<ele>706</ele>
						<time>2025-03-26T09:07:31Z</time>
					</trkpt>
					<trkpt lat="45.687690" lon="4.488500">
						<ele>705</ele>
						<time>2025-03-26T09:07:47Z</time>
					</trkpt>
					<trkpt lat="45.687720" lon="4.488710">
						<ele>705</ele>
						<time>2025-03-26T09:08:07Z</time>
					</trkpt>
					<trkpt lat="45.687750" lon="4.488980">
						<ele>705</ele>
						<time>2025-03-26T09:08:32Z</time>
					</trkpt>
					<trkpt lat="45.687740" lon="4.489090">
						<ele>705</ele>
						<time>2025-03-26T09:08:43Z</time>
					</trkpt>
					<trkpt lat="45.687720" lon="4.489210">
						<ele>705</ele>
						<time>2025-03-26T09:08:54Z</time>
					</trkpt>
					<trkpt lat="45.687630" lon="4.489360">
						<ele>706</ele>
						<time>2025-03-26T09:09:13Z</time>
					</trkpt>
					<trkpt lat="45.687580" lon="4.489480">
						<ele>707</ele>
						<time>2025-03-26T09:09:26Z</time>
					</trkpt>
					<trkpt lat="45.687550" lon="4.489610">
						<ele>706</ele>
						<time>2025-03-26T09:09:38Z</time>
					</trkpt>
					<trkpt lat="45.687520" lon="4.490200">
						<ele>705</ele>
						<time>2025-03-26T09:10:33Z</time>
					</trkpt>
					<trkpt lat="45.687530" lon="4.490400">
						<ele>706</ele>
						<time>2025-03-26T09:10:52Z</time>
					</trkpt>
					<trkpt lat="45.687570" lon="4.490480">
						<ele>705</ele>
						<time>2025-03-26T09:11:01Z</time>
					</trkpt>
					<trkpt lat="45.687630" lon="4.490540">
						<ele>704</ele>
						<time>2025-03-26T09:11:11Z</time>
					</trkpt>
					<trkpt lat="45.687880" lon="4.490800">
						<ele>696</ele>
						<time>2025-03-26T09:11:52Z</time>
					</trkpt>
					<trkpt lat="45.687980" lon="4.490850">
						<ele>693</ele>
						<time>2025-03-26T09:12:06Z</time>
					</trkpt>
					<trkpt lat="45.688110" lon="4.490890">
						<ele>689</ele>
						<time>2025-03-26T09:12:24Z</time>
					</trkpt>
					<trkpt lat="45.688250" lon="4.490890">
						<ele>684</ele>
						<time>2025-03-26T09:12:43Z</time>
					</trkpt>
					<trkpt lat="45.688380" lon="4.490940">
						<ele>680</ele>
						<time>2025-03-26T09:13:01Z</time>
					</trkpt>
					<trkpt lat="45.688660" lon="4.491270">
						<ele>680</ele>
						<time>2025-03-26T09:13:49Z</time>
					</trkpt>
					<trkpt lat="45.688890" lon="4.491430">
						<ele>675</ele>
						<time>2025-03-26T09:14:23Z</time>
					</trkpt>
					<trkpt lat="45.689150" lon="4.491790">
						<ele>673</ele>
						<time>2025-03-26T09:15:12Z</time>
					</trkpt>
					<trkpt lat="45.689460" lon="4.492390">
						<ele>665</ele>
						<time>2025-03-26T09:16:21Z</time>
					</trkpt>
					<trkpt lat="45.689660" lon="4.492940">
						<ele>658</ele>
						<time>2025-03-26T09:17:19Z</time>
					</trkpt>
					<trkpt lat="45.689790" lon="4.494110">
						<ele>652</ele>
						<time>2025-03-26T09:19:09Z</time>
					</trkpt>
					<trkpt lat="45.689940" lon="4.494660">
						<ele>645</ele>
						<time>2025-03-26T09:20:05Z</time>
					</trkpt>
					<trkpt lat="45.690240" lon="4.495160">
						<ele>629</ele>
						<time>2025-03-26T09:21:06Z</time>
					</trkpt>
					<trkpt lat="45.690480" lon="4.495730">
						<ele>618</ele>
						<time>2025-03-26T09:22:08Z</time>
					</trkpt>
					<trkpt lat="45.690520" lon="4.495830">
						<ele>617</ele>
						<time>2025-03-26T09:22:19Z</time>
					</trkpt>
					<trkpt lat="45.690580" lon="4.496390">
						<ele>614</ele>
						<time>2025-03-26T09:23:12Z</time>
					</trkpt>
					<trkpt lat="45.690610" lon="4.497050">
						<ele>612</ele>
						<time>2025-03-26T09:24:13Z</time>
					</trkpt>
					<trkpt lat="45.690570" lon="4.497700">
						<ele>611</ele>
						<time>2025-03-26T09:25:14Z</time>
					</trkpt>
					<trkpt lat="45.690450" lon="4.498240">
						<ele>612</ele>
						<time>2025-03-26T09:26:07Z</time>
					</trkpt>
					<trkpt lat="45.690320" lon="4.498560">
						<ele>613</ele>
						<time>2025-03-26T09:26:41Z</time>
					</trkpt>
					<trkpt lat="45.689530" lon="4.499300">
						<ele>625</ele>
						<time>2025-03-26T09:28:47Z</time>
					</trkpt>
					<trkpt lat="45.689380" lon="4.499380">
						<ele>628</ele>
						<time>2025-03-26T09:29:09Z</time>
					</trkpt>
					<trkpt lat="45.689280" lon="4.499510">
						<ele>628</ele>
						<time>2025-03-26T09:29:27Z</time>
					</trkpt>
					<trkpt lat="45.689270" lon="4.499600">
						<ele>627</ele>
						<time>2025-03-26T09:29:35Z</time>
					</trkpt>
					<trkpt lat="45.689260" lon="4.499660">
						<ele>626</ele>
						<time>2025-03-26T09:29:41Z</time>
					</trkpt>
					<trkpt lat="45.689210" lon="4.499770">
						<ele>626</ele>
						<time>2025-03-26T09:29:53Z</time>
					</trkpt>
					<trkpt lat="45.689190" lon="4.499830">
						<ele>625</ele>
						<time>2025-03-26T09:29:59Z</time>
					</trkpt>
					<trkpt lat="45.689020" lon="4.499700">
						<ele>631</ele>
						<time>2025-03-26T09:30:25Z</time>
					</trkpt>
					<trkpt lat="45.688970" lon="4.499660">
						<ele>632</ele>
						<time>2025-03-26T09:30:33Z</time>
					</trkpt>
					<trkpt lat="45.688860" lon="4.499530">
						<ele>636</ele>
						<time>2025-03-26T09:30:52Z</time>
					</trkpt>
					<trkpt lat="45.688750" lon="4.499450">
						<ele>639</ele>
						<time>2025-03-26T09:31:08Z</time>
					</trkpt>
					<trkpt lat="45.688630" lon="4.499310">
						<ele>642</ele>
						<time>2025-03-26T09:31:29Z</time>
					</trkpt>
					<trkpt lat="45.688490" lon="4.499320">
						<ele>643</ele>
						<time>2025-03-26T09:31:48Z</time>
					</trkpt>
					<trkpt lat="45.688300" lon="4.499590">
						<ele>645</ele>
						<time>2025-03-26T09:32:23Z</time>
					</trkpt>
					<trkpt lat="45.688190" lon="4.499800">
						<ele>647</ele>
						<time>2025-03-26T09:32:48Z</time>
					</trkpt>
					<trkpt lat="45.688100" lon="4.499910">
						<ele>650</ele>
						<time>2025-03-26T09:33:04Z</time>
					</trkpt>
					<trkpt lat="45.688010" lon="4.500120">
						<ele>652</ele>
						<time>2025-03-26T09:33:27Z</time>
					</trkpt>
					<trkpt lat="45.687850" lon="4.500440">
						<ele>656</ele>
						<time>2025-03-26T09:34:03Z</time>
					</trkpt>
					<trkpt lat="45.687690" lon="4.501110">
						<ele>660</ele>
						<time>2025-03-26T09:35:09Z</time>
					</trkpt>
					<trkpt lat="45.687590" lon="4.501330">
						<ele>662</ele>
						<time>2025-03-26T09:35:34Z</time>
					</trkpt>
					<trkpt lat="45.687480" lon="4.501380">
						<ele>666</ele>
						<time>2025-03-26T09:35:49Z</time>
					</trkpt>
					<trkpt lat="45.687370" lon="4.501370">
						<ele>669</ele>
						<time>2025-03-26T09:36:04Z</time>
					</trkpt>
					<trkpt lat="45.687360" lon="4.501400">
						<ele>669</ele>
						<time>2025-03-26T09:36:07Z</time>
					</trkpt>
					<trkpt lat="45.687370" lon="4.501370">
						<ele>669</ele>
						<time>2025-03-26T09:36:10Z</time>
					</trkpt>
					<trkpt lat="45.687100" lon="4.500800">
						<ele>678</ele>
						<time>2025-03-26T09:37:14Z</time>
					</trkpt>
					<trkpt lat="45.686960" lon="4.500440">
						<ele>682</ele>
						<time>2025-03-26T09:37:53Z</time>
					</trkpt>
					<trkpt lat="45.686790" lon="4.500080">
						<ele>687</ele>
						<time>2025-03-26T09:38:33Z</time>
					</trkpt>
					<trkpt lat="45.686610" lon="4.499680">
						<ele>692</ele>
						<time>2025-03-26T09:39:18Z</time>
					</trkpt>
					<trkpt lat="45.686260" lon="4.499180">
						<ele>704</ele>
						<time>2025-03-26T09:40:24Z</time>
					</trkpt>
					<trkpt lat="45.686140" lon="4.498970">
						<ele>706</ele>
						<time>2025-03-26T09:40:49Z</time>
					</trkpt>
					<trkpt lat="45.686010" lon="4.498660">
						<ele>708</ele>
						<time>2025-03-26T09:41:23Z</time>
					</trkpt>
					<trkpt lat="45.685690" lon="4.498090">
						<ele>713</ele>
						<time>2025-03-26T09:42:31Z</time>
					</trkpt>
					<trkpt lat="45.685600" lon="4.497880">
						<ele>714</ele>
						<time>2025-03-26T09:42:54Z</time>
					</trkpt>
					<trkpt lat="45.685390" lon="4.497480">
						<ele>716</ele>
						<time>2025-03-26T09:43:40Z</time>
					</trkpt>
					<trkpt lat="45.684680" lon="4.496310">
						<ele>735</ele>
						<time>2025-03-26T09:46:05Z</time>
					</trkpt>
					<trkpt lat="45.684630" lon="4.496180">
						<ele>737</ele>
						<time>2025-03-26T09:46:19Z</time>
					</trkpt>
					<trkpt lat="45.684630" lon="4.496160">
						<ele>737</ele>
						<time>2025-03-26T09:46:20Z</time>
					</trkpt>
					<trkpt lat="45.684630" lon="4.496080">
						<ele>738</ele>
						<time>2025-03-26T09:46:28Z</time>
					</trkpt>
					<trkpt lat="45.684670" lon="4.496000">
						<ele>738</ele>
						<time>2025-03-26T09:46:37Z</time>
					</trkpt>
					<trkpt lat="45.684740" lon="4.495920">
						<ele>738</ele>
						<time>2025-03-26T09:46:49Z</time>
					</trkpt>
					<trkpt lat="45.684950" lon="4.495750">
						<ele>740</ele>
						<time>2025-03-26T09:47:21Z</time>
					</trkpt>
					<trkpt lat="45.685080" lon="4.495670">
						<ele>741</ele>
						<time>2025-03-26T09:47:40Z</time>
					</trkpt>
					<trkpt lat="45.685280" lon="4.495590">
						<ele>742</ele>
						<time>2025-03-26T09:48:08Z</time>
					</trkpt>
					<trkpt lat="45.685740" lon="4.495480">
						<ele>743</ele>
						<time>2025-03-26T09:49:10Z</time>
					</trkpt>
					<trkpt lat="45.685790" lon="4.495420">
						<ele>745</ele>
						<time>2025-03-26T09:49:19Z</time>
					</trkpt>
					<trkpt lat="45.686060" lon="4.495370">
						<ele>745</ele>
						<time>2025-03-26T09:49:55Z</time>
					</trkpt>
					<trkpt lat="45.685790" lon="4.495420">
						<ele>745</ele>
						<time>2025-03-26T09:50:31Z</time>
					</trkpt>
					<trkpt lat="45.685590" lon="4.495380">
						<ele>747</ele>
						<time>2025-03-26T09:50:58Z</time>
					</trkpt>
					<trkpt lat="45.685300" lon="4.495280">
						<ele>751</ele>
						<time>2025-03-26T09:51:38Z</time>
					</trkpt>
					<trkpt lat="45.684790" lon="4.495210">
						<ele>755</ele>
						<time>2025-03-26T09:52:47Z</time>
					</trkpt>
					<trkpt lat="45.684530" lon="4.495150">
						<ele>757</ele>
						<time>2025-03-26T09:53:22Z</time>
					</trkpt>
					<trkpt lat="45.683880" lon="4.495040">
						<ele>763</ele>
						<time>2025-03-26T09:54:49Z</time>
					</trkpt>
					<trkpt lat="45.683790" lon="4.495060">
						<ele>764</ele>
						<time>2025-03-26T09:55:01Z</time>
					</trkpt>
					<trkpt lat="45.683710" lon="4.495110">
						<ele>764</ele>
						<time>2025-03-26T09:55:13Z</time>
					</trkpt>
					<trkpt lat="45.683370" lon="4.495680">
						<ele>765</ele>
						<time>2025-03-26T09:56:23Z</time>
					</trkpt>
					<trkpt lat="45.683260" lon="4.495910">
						<ele>768</ele>
						<time>2025-03-26T09:56:49Z</time>
					</trkpt>
					<trkpt lat="45.683090" lon="4.496700">
						<ele>777</ele>
						<time>2025-03-26T09:58:06Z</time>
					</trkpt>
					<trkpt lat="45.683050" lon="4.496800">
						<ele>779</ele>
						<time>2025-03-26T09:58:17Z</time>
					</trkpt>
					<trkpt lat="45.682980" lon="4.496800">
						<ele>782</ele>
						<time>2025-03-26T09:58:26Z</time>
					</trkpt>
					<trkpt lat="45.682880" lon="4.496670">
						<ele>783</ele>
						<time>2025-03-26T09:58:44Z</time>
					</trkpt>
					<trkpt lat="45.682720" lon="4.496430">
						<ele>788</ele>
						<time>2025-03-26T09:59:15Z</time>
					</trkpt>
					<trkpt lat="45.682630" lon="4.496240">
						<ele>790</ele>
						<time>2025-03-26T09:59:36Z</time>
					</trkpt>
					<trkpt lat="45.682550" lon="4.495850">
						<ele>790</ele>
						<time>2025-03-26T10:00:14Z</time>
					</trkpt>
					<trkpt lat="45.682480" lon="4.495610">
						<ele>793</ele>
						<time>2025-03-26T10:00:38Z</time>
					</trkpt>
					<trkpt lat="45.682460" lon="4.495440">
						<ele>795</ele>
						<time>2025-03-26T10:00:54Z</time>
					</trkpt>
					<trkpt lat="45.682440" lon="4.495210">
						<ele>796</ele>
						<time>2025-03-26T10:01:16Z</time>
					</trkpt>
					<trkpt lat="45.682250" lon="4.494230">
						<ele>798</ele>
						<time>2025-03-26T10:02:51Z</time>
					</trkpt>
					<trkpt lat="45.682190" lon="4.493860">
						<ele>800</ele>
						<time>2025-03-26T10:03:26Z</time>
					</trkpt>
					<trkpt lat="45.682150" lon="4.493730">
						<ele>800</ele>
						<time>2025-03-26T10:03:40Z</time>
					</trkpt>
					<trkpt lat="45.682060" lon="4.493630">
						<ele>801</ele>
						<time>2025-03-26T10:03:55Z</time>
					</trkpt>
					<trkpt lat="45.681970" lon="4.493590">
						<ele>802</ele>
						<time>2025-03-26T10:04:07Z</time>
					</trkpt>
					<trkpt lat="45.681830" lon="4.493560">
						<ele>803</ele>
						<time>2025-03-26T10:04:26Z</time>
					</trkpt>
					<trkpt lat="45.681770" lon="4.493550">
						<ele>804</ele>
						<time>2025-03-26T10:04:34Z</time>
					</trkpt>
					<trkpt lat="45.681780" lon="4.493170">
						<ele>803</ele>
						<time>2025-03-26T10:05:10Z</time>
					</trkpt>
					<trkpt lat="45.681810" lon="4.489510">
						<ele>799</ele>
						<time>2025-03-26T10:10:51Z</time>
					</trkpt>
					<trkpt lat="45.681880" lon="4.489460">
						<ele>800</ele>
						<time>2025-03-26T10:11:01Z</time>
					</trkpt>
					<trkpt lat="45.681970" lon="4.489340">
						<ele>801</ele>
						<time>2025-03-26T10:11:18Z</time>
					</trkpt>
					<trkpt lat="45.682010" lon="4.489230">
						<ele>801</ele>
						<time>2025-03-26T10:11:29Z</time>
					</trkpt>
					<trkpt lat="45.682020" lon="4.489040">
						<ele>802</ele>
						<time>2025-03-26T10:11:47Z</time>
					</trkpt>
					<trkpt lat="45.681980" lon="4.488250">
						<ele>806</ele>
						<time>2025-03-26T10:13:01Z</time>
					</trkpt>
					<trkpt lat="45.681960" lon="4.487950">
						<ele>807</ele>
						<time>2025-03-26T10:13:29Z</time>
					</trkpt>
					<trkpt lat="45.681920" lon="4.487710">
						<ele>808</ele>
						<time>2025-03-26T10:13:52Z</time>
					</trkpt>
					<trkpt lat="45.681870" lon="4.487450">
						<ele>808</ele>
						<time>2025-03-26T10:14:17Z</time>
					</trkpt>
					<trkpt lat="45.681710" lon="4.487010">
						<ele>810</ele>
						<time>2025-03-26T10:15:03Z</time>
					</trkpt>
					<trkpt lat="45.681530" lon="4.486590">
						<ele>811</ele>
						<time>2025-03-26T10:15:49Z</time>
					</trkpt>
					<trkpt lat="45.681420" lon="4.486410">
						<ele>811</ele>
						<time>2025-03-26T10:16:12Z</time>
					</trkpt>
					<trkpt lat="45.681020" lon="4.485730">
						<ele>807</ele>
						<time>2025-03-26T10:17:35Z</time>
					</trkpt>
					<trkpt lat="45.680990" lon="4.485410">
						<ele>808</ele>
						<time>2025-03-26T10:18:05Z</time>
					</trkpt>
					<trkpt lat="45.680970" lon="4.485020">
						<ele>810</ele>
						<time>2025-03-26T10:18:41Z</time>
					</trkpt>
					<trkpt lat="45.680960" lon="4.484710">
						<ele>808</ele>
						<time>2025-03-26T10:19:10Z</time>
					</trkpt>
					<trkpt lat="45.681020" lon="4.484450">
						<ele>809</ele>
						<time>2025-03-26T10:19:36Z</time>
					</trkpt>
					<trkpt lat="45.681110" lon="4.484230">
						<ele>809</ele>
						<time>2025-03-26T10:19:59Z</time>
					</trkpt>
					<trkpt lat="45.681270" lon="4.483970">
						<ele>810</ele>
						<time>2025-03-26T10:20:32Z</time>
					</trkpt>
					<trkpt lat="45.681530" lon="4.483650">
						<ele>811</ele>
						<time>2025-03-26T10:21:17Z</time>
					</trkpt>
					<trkpt lat="45.681690" lon="4.483450">
						<ele>810</ele>
						<time>2025-03-26T10:21:46Z</time>
					</trkpt>
					<trkpt lat="45.681770" lon="4.483320">
						<ele>807</ele>
						<time>2025-03-26T10:22:02Z</time>
					</trkpt>
					<trkpt lat="45.681840" lon="4.483150">
						<ele>807</ele>
						<time>2025-03-26T10:22:20Z</time>
					</trkpt>
					<trkpt lat="45.682000" lon="4.482600">
						<ele>804</ele>
						<time>2025-03-26T10:23:16Z</time>
					</trkpt>
					<trkpt lat="45.682260" lon="4.481730">
						<ele>797</ele>
						<time>2025-03-26T10:24:44Z</time>
					</trkpt>
					<trkpt lat="45.682370" lon="4.481130">
						<ele>794</ele>
						<time>2025-03-26T10:25:42Z</time>
					</trkpt>
					<trkpt lat="45.682400" lon="4.480910">
						<ele>793</ele>
						<time>2025-03-26T10:26:03Z</time>
					</trkpt>
					<trkpt lat="45.682540" lon="4.479970">
						<ele>790</ele>
						<time>2025-03-26T10:27:32Z</time>
					</trkpt>
					<trkpt lat="45.682580" lon="4.478840">
						<ele>787</ele>
						<time>2025-03-26T10:29:18Z</time>
					</trkpt>
					<trkpt lat="45.682570" lon="4.478780">
						<ele>787</ele>
						<time>2025-03-26T10:29:24Z</time>
					</trkpt>
					<trkpt lat="45.682550" lon="4.478470">
						<ele>786</ele>
						<time>2025-03-26T10:29:53Z</time>
					</trkpt>
					<trkpt lat="45.682540" lon="4.478190">
						<ele>786</ele>
						<time>2025-03-26T10:30:19Z</time>
					</trkpt>
					<trkpt lat="45.682660" lon="4.477410">
						<ele>786</ele>
						<time>2025-03-26T10:31:33Z</time>
					</trkpt>
					<trkpt lat="45.682660" lon="4.476940">
						<ele>786</ele>
						<time>2025-03-26T10:32:17Z</time>
					</trkpt>
					<trkpt lat="45.682730" lon="4.476920">
						<ele>785</ele>
						<time>2025-03-26T10:32:27Z</time>
					</trkpt>
					</trkseg>
				</trk>
			</gpx>